Time;durP1;ratioP1;P1;durP2;ratioP2;P2;SDS_P1;SDS_P2;PMS_P1;PMS_P2;Temp;Humidity;BMP_temperature;BMP_pressure;BME280_temperature;BME280_humidity;BME280_pressure;Samples;Min_cycle;Max_cycle;Signal;HPM_P1;HPM_P2
2024/01/17 00:01:55;;;;;;;;;26.25;20.00;;;;;-144.24;100.00;114865.94;5097631;27;45443;-66
2024/01/17 00:04:20;;;;;;;;;20.75;20.00;;;;;-144.24;100.00;114865.94;5098306;27;45437;-68
2024/01/17 00:06:45;;;;;;;;;25.75;19.00;;;;;-144.24;100.00;114865.94;5092572;27;52903;-71
2024/01/17 00:09:11;;;;;;;;;25.75;20.50;;;;;-144.24;100.00;114865.94;5097491;27;46951;-68
2024/01/17 00:11:37;;;;;;;;;23.00;18.00;;;;;-144.24;100.00;114865.94;5095376;27;45628;-69
2024/01/17 00:14:02;;;;;;;;;24.00;21.25;;;;;-144.24;100.00;114865.94;5097149;27;45381;-70
2024/01/17 00:16:28;;;;;;;;;28.25;20.75;;;;;-144.24;100.00;114865.94;5096031;27;57225;-69
2024/01/17 00:18:54;;;;;;;;;25.25;16.50;;;;;-144.24;100.00;114865.94;5096775;27;45325;-69
2024/01/17 00:21:20;;;;;;;;;25.75;18.75;;;;;-144.24;100.00;114865.94;5095325;27;45283;-68
2024/01/17 00:23:45;;;;;;;;;24.25;18.50;;;;;-144.24;100.00;114865.94;5096977;27;45382;-68
2024/01/17 00:26:11;;;;;;;;;25.00;19.25;;;;;-144.24;100.00;114865.94;5096683;27;57715;-71
2024/01/17 00:28:36;;;;;;;;;26.00;20.00;;;;;-144.24;100.00;114865.94;5093376;27;47579;-70
2024/01/17 00:31:02;;;;;;;;;14.50;14.25;;;;;-144.24;100.00;114865.94;5096278;27;71242;-71
2024/01/17 00:33:28;;;;;;;;;25.00;16.75;;;;;-144.24;100.00;114865.94;5093234;27;45434;-70
2024/01/17 00:35:53;;;;;;;;;28.00;21.25;;;;;-144.24;100.00;114865.94;5093336;27;58532;-71
2024/01/17 00:38:18;;;;;;;;;21.75;20.25;;;;;-144.24;100.00;114865.94;5092817;27;46171;-68
2024/01/17 00:40:44;;;;;;;;;21.25;18.50;;;;;-144.24;100.00;114865.94;5094485;27;58909;-69
2024/01/17 00:43:09;;;;;;;;;25.50;20.75;;;;;-144.24;100.00;114865.94;5096046;27;65369;-70
2024/01/17 00:45:34;;;;;;;;;30.00;22.00;;;;;-144.24;100.00;114865.94;5097139;27;45481;-69
2024/01/17 00:48:00;;;;;;;;;22.00;19.00;;;;;-144.24;100.00;114865.94;5090892;27;69082;-68
2024/01/17 00:50:25;;;;;;;;;25.00;21.75;;;;;-144.24;100.00;114865.94;5088338;27;45452;-70
2024/01/17 00:52:50;;;;;;;;;25.00;22.00;;;;;-144.24;100.00;114865.94;5088134;27;67655;-68
2024/01/17 00:55:16;;;;;;;;;22.75;20.00;;;;;-144.24;100.00;114865.94;5090010;27;45158;-69
2024/01/17 00:57:42;;;;;;;;;24.25;22.50;;;;;-144.24;100.00;114865.94;5092257;27;47324;-68
2024/01/17 01:00:08;;;;;;;;;26.75;21.50;;;;;-144.24;100.00;114865.94;5096103;27;45406;-69
2024/01/17 01:02:33;;;;;;;;;23.75;19.00;;;;;-144.24;100.00;114865.94;5093324;27;45371;-70
2024/01/17 01:04:58;;;;;;;;;22.25;19.75;;;;;-144.24;100.00;114865.94;5095137;27;45394;-70
2024/01/17 01:07:24;;;;;;;;;23.75;22.00;;;;;-144.24;100.00;114865.94;5088071;27;69174;-69
2024/01/17 01:09:49;;;;;;;;;27.00;19.50;;;;;-144.24;100.00;114865.94;5092953;27;65789;-70
2024/01/17 01:12:14;;;;;;;;;28.00;18.50;;;;;-144.24;100.00;114865.94;5090949;27;52545;-68
2024/01/17 01:14:40;;;;;;;;;26.75;22.75;;;;;-144.24;100.00;114865.94;5091162;27;67760;-68
2024/01/17 01:17:05;;;;;;;;;24.25;16.25;;;;;-144.24;100.00;114865.94;5096318;27;59854;-68
2024/01/17 01:19:30;;;;;;;;;27.75;22.75;;;;;-144.24;100.00;114865.94;5095043;27;68539;-69
2024/01/17 01:21:56;;;;;;;;;26.00;22.00;;;;;-144.24;100.00;114865.94;5096668;27;55675;-71
2024/01/17 01:24:22;;;;;;;;;26.25;22.00;;;;;-144.24;100.00;114865.94;5097781;27;62625;-70
2024/01/17 01:26:47;;;;;;;;;26.75;21.00;;;;;-144.24;100.00;114865.94;5096667;27;46404;-73
2024/01/17 01:29:14;;;;;;;;;25.50;22.75;;;;;-144.24;100.00;114865.94;5098388;27;65110;-70
2024/01/17 01:31:39;;;;;;;;;27.50;19.75;;;;;-144.24;100.00;114865.94;5100274;27;45583;-68
2024/01/17 01:34:04;;;;;;;;;25.50;22.25;;;;;-144.24;100.00;114865.94;5098875;27;45253;-68
2024/01/17 01:36:30;;;;;;;;;23.00;21.50;;;;;-144.24;100.00;114865.94;5099338;27;66207;-70
2024/01/17 01:38:55;;;;;;;;;31.50;23.25;;;;;-144.24;100.00;114865.94;5097350;27;45570;-68
2024/01/17 01:41:20;;;;;;;;;26.50;19.75;;;;;-144.24;100.00;114865.94;5099341;27;67885;-68
2024/01/17 01:43:46;;;;;;;;;25.00;21.25;;;;;-144.24;100.00;114865.94;5081473;27;45509;-68
2024/01/17 01:46:20;;;;;;;;;32.25;23.00;;;;;-144.24;100.00;114865.94;5080966;27;75589;-68
2024/01/17 01:48:46;;;;;;;;;36.75;25.00;;;;;-144.24;100.00;114865.94;5069943;27;45576;-68
2024/01/17 01:51:12;;;;;;;;;26.00;23.50;;;;;-144.24;100.00;114865.94;5076568;28;45512;-68
2024/01/17 01:53:38;;;;;;;;;26.25;22.50;;;;;-144.24;100.00;114865.94;5096588;27;45466;-68
2024/01/17 01:56:04;;;;;;;;;24.25;22.50;;;;;-144.24;100.00;114865.94;5094553;27;46393;-68
2024/01/17 01:58:30;;;;;;;;;23.00;17.25;;;;;-144.24;100.00;114865.94;5079174;27;45541;-69
2024/01/17 02:00:56;;;;;;;;;20.75;14.75;;;;;-144.24;100.00;114865.94;5098687;27;66851;-71
2024/01/17 02:03:23;;;;;;;;;27.50;26.00;;;;;-144.24;100.00;114865.94;5099944;27;46572;-70
2024/01/17 02:05:49;;;;;;;;;32.75;22.25;;;;;-144.24;100.00;114865.94;5097982;27;45572;-68
2024/01/17 02:08:15;;;;;;;;;25.00;23.00;;;;;-144.24;100.00;114865.94;5097096;27;57913;-67
2024/01/17 02:10:40;;;;;;;;;27.75;21.75;;;;;-144.24;100.00;114865.94;5098957;27;45343;-68
2024/01/17 02:13:06;;;;;;;;;36.50;28.50;;;;;-144.24;100.00;114865.94;5098209;27;63355;-68
2024/01/17 02:15:31;;;;;;;;;24.25;18.75;;;;;-144.24;100.00;114865.94;5088909;27;47274;-68
2024/01/17 02:17:56;;;;;;;;;33.00;26.75;;;;;-144.24;100.00;114865.94;5098257;27;69822;-67
2024/01/17 02:20:22;;;;;;;;;26.25;20.50;;;;;-144.24;100.00;114865.94;5097296;27;65807;-68
2024/01/17 02:22:47;;;;;;;;;26.75;22.25;;;;;-144.24;100.00;114865.94;5080296;27;66015;-71
2024/01/17 02:25:12;;;;;;;;;32.00;22.50;;;;;-144.24;100.00;114865.94;5092706;27;75666;-67
2024/01/17 02:27:38;;;;;;;;;43.00;24.00;;;;;-144.24;100.00;114865.94;5099252;27;45268;-70
2024/01/17 02:30:07;;;;;;;;;33.50;23.00;;;;;-144.24;100.00;114865.94;5099320;27;45109;-72
2024/01/17 02:32:34;;;;;;;;;33.00;22.00;;;;;-144.24;100.00;114865.94;5080874;27;45301;-72
2024/01/17 02:34:59;;;;;;;;;25.75;22.00;;;;;-144.24;100.00;114865.94;5097805;27;46395;-67
2024/01/17 02:37:25;;;;;;;;;32.00;25.00;;;;;-144.24;100.00;114865.94;5098341;27;49524;-71
2024/01/17 02:39:50;;;;;;;;;34.00;22.50;;;;;-144.24;100.00;114865.94;5085676;27;67577;-70
2024/01/17 02:42:15;;;;;;;;;27.25;23.25;;;;;-144.24;100.00;114865.94;5096605;27;62351;-68
2024/01/17 02:44:40;;;;;;;;;32.50;23.50;;;;;-144.24;100.00;114865.94;5097822;27;75260;-67
2024/01/17 02:47:06;;;;;;;;;36.50;25.00;;;;;-144.24;100.00;114865.94;5097554;27;70927;-68
2024/01/17 02:49:32;;;;;;;;;27.25;22.50;;;;;-144.24;100.00;114865.94;5099019;27;45462;-70
2024/01/17 02:51:57;;;;;;;;;23.00;20.50;;;;;-144.24;100.00;114865.94;5090107;27;64418;-67
2024/01/17 02:54:22;;;;;;;;;32.25;27.00;;;;;-144.24;100.00;114865.94;5083163;27;62938;-69
2024/01/17 02:56:48;;;;;;;;;32.75;25.75;;;;;-144.24;100.00;114865.94;5095478;27;45375;-68
2024/01/17 02:59:14;;;;;;;;;30.00;24.00;;;;;-144.24;100.00;114865.94;5085071;27;45437;-69
2024/01/17 03:01:39;;;;;;;;;33.75;25.75;;;;;-144.24;100.00;114865.94;5098157;27;45583;-66
2024/01/17 03:04:05;;;;;;;;;33.50;24.75;;;;;-144.24;100.00;114865.94;5098134;27;46410;-68
2024/01/17 03:06:31;;;;;;;;;32.00;24.50;;;;;-144.24;100.00;114865.94;5090414;27;45505;-69
2024/01/17 03:08:56;;;;;;;;;35.00;28.50;;;;;-144.24;100.00;114865.94;5091105;27;45430;-68
2024/01/17 03:11:21;;;;;;;;;25.25;19.25;;;;;-144.24;100.00;114865.94;5053745;27;65656;-67
2024/01/17 03:13:47;;;;;;;;;32.50;23.00;;;;;-144.24;100.00;114865.94;5095366;27;74226;-68
2024/01/17 03:16:14;;;;;;;;;37.25;27.50;;;;;-144.24;100.00;114865.94;5097332;27;45259;-70
2024/01/17 03:18:39;;;;;;;;;29.75;24.25;;;;;-144.24;100.00;114865.94;5097781;27;45359;-68
2024/01/17 03:21:04;;;;;;;;;26.00;25.50;;;;;-144.24;100.00;114865.94;5096176;27;45397;-68
2024/01/17 03:23:30;;;;;;;;;20.50;19.50;;;;;-144.24;100.00;114865.94;5098446;27;46300;-71
2024/01/17 03:25:55;;;;;;;;;29.75;23.00;;;;;-144.24;100.00;114865.94;5095636;27;66714;-70
2024/01/17 03:28:21;;;;;;;;;32.25;21.75;;;;;-144.24;100.00;114865.94;5097472;27;68009;-70
2024/01/17 03:30:47;;;;;;;;;28.50;21.50;;;;;-144.24;100.00;114865.94;5096232;27;45408;-68
2024/01/17 03:33:12;;;;;;;;;39.50;28.50;;;;;-144.24;100.00;114865.94;5097950;27;47397;-68
2024/01/17 03:35:38;;;;;;;;;28.00;25.50;;;;;-144.24;100.00;114865.94;5096586;27;72143;-71
2024/01/17 03:38:03;;;;;;;;;36.25;30.75;;;;;-144.24;100.00;114865.94;5088570;27;64497;-69
2024/01/17 03:40:28;;;;;;;;;32.75;23.75;;;;;-144.24;100.00;114865.94;5098244;27;45456;-71
2024/01/17 03:42:54;;;;;;;;;38.50;29.50;;;;;-144.24;100.00;114865.94;5090073;27;70386;-69
2024/01/17 03:45:19;;;;;;;;;25.25;22.50;;;;;-144.24;100.00;114865.94;5094565;27;60081;-69
2024/01/17 03:47:44;;;;;;;;;25.75;23.00;;;;;-144.24;100.00;114865.94;5089148;27;45325;-68
2024/01/17 03:50:10;;;;;;;;;26.00;22.00;;;;;-144.24;100.00;114865.94;5096478;27;62883;-71
2024/01/17 03:52:35;;;;;;;;;26.75;26.00;;;;;-144.24;100.00;114865.94;5095897;27;72937;-68
2024/01/17 03:55:00;;;;;;;;;35.50;23.75;;;;;-144.24;100.00;114865.94;5097091;27;52166;-71
2024/01/17 03:57:27;;;;;;;;;32.25;21.75;;;;;-144.24;100.00;114865.94;5094115;27;45411;-68
2024/01/17 03:59:53;;;;;;;;;19.00;19.00;;;;;-144.24;100.00;114865.94;5096422;27;45381;-67
2024/01/17 04:02:18;;;;;;;;;32.75;31.25;;;;;-144.24;100.00;114865.94;5097096;27;73513;-70
2024/01/17 04:04:45;;;;;;;;;34.75;25.00;;;;;-144.24;100.00;114865.94;5096982;27;45426;-70
2024/01/17 04:07:11;;;;;;;;;37.00;27.00;;;;;-144.24;100.00;114865.94;5097521;27;45540;-70
2024/01/17 04:09:36;;;;;;;;;36.25;24.50;;;;;-144.24;100.00;114865.94;5097796;27;45313;-68
2024/01/17 04:12:02;;;;;;;;;42.25;27.25;;;;;-144.24;100.00;114865.94;5095739;27;58408;-67
2024/01/17 04:14:27;;;;;;;;;32.75;26.25;;;;;-144.24;100.00;114865.94;5096441;27;45645;-68
2024/01/17 04:16:53;;;;;;;;;33.25;25.50;;;;;-144.24;100.00;114865.94;5097550;27;45205;-70
2024/01/17 04:19:18;;;;;;;;;29.50;28.00;;;;;-144.24;100.00;114865.94;5096146;27;67492;-70
2024/01/17 04:21:43;;;;;;;;;35.75;29.00;;;;;-144.24;100.00;114865.94;5095877;27;71061;-68
2024/01/17 04:24:09;;;;;;;;;32.25;24.25;;;;;-144.24;100.00;114865.94;5095939;27;47636;-66
2024/01/17 04:26:34;;;;;;;;;35.00;25.75;;;;;-144.24;100.00;114865.94;5095463;27;45458;-68
2024/01/17 04:29:00;;;;;;;;;39.50;32.25;;;;;-144.24;100.00;114865.94;5095406;27;56857;-68
2024/01/17 04:31:27;;;;;;;;;30.75;26.00;;;;;-144.24;100.00;114865.94;5097037;27;47274;-70
2024/01/17 04:33:53;;;;;;;;;33.50;27.25;;;;;-144.24;100.00;114865.94;5097028;27;45335;-70
2024/01/17 04:36:19;;;;;;;;;32.25;23.75;;;;;-144.24;100.00;114865.94;5097607;27;45347;-69
2024/01/17 04:38:45;;;;;;;;;30.25;25.75;;;;;-144.24;100.00;114865.94;5095251;27;46213;-68
2024/01/17 04:41:11;;;;;;;;;30.50;25.25;;;;;-144.24;100.00;114865.94;5096960;27;46478;-67
2024/01/17 04:43:37;;;;;;;;;35.50;27.00;;;;;-144.24;100.00;114865.94;5096994;27;45284;-67
2024/01/17 04:46:02;;;;;;;;;37.25;27.00;;;;;-144.24;100.00;114865.94;5096779;27;45502;-70
2024/01/17 04:48:27;;;;;;;;;35.75;29.00;;;;;-144.24;100.00;114865.94;5094933;27;51348;-71
2024/01/17 04:50:58;;;;;;;;;36.50;26.50;;;;;-144.24;100.00;114865.94;5092559;27;68422;-67
2024/01/17 04:53:24;;;;;;;;;34.00;23.00;;;;;-144.24;100.00;114865.94;5096090;27;46946;-67
2024/01/17 04:55:49;;;;;;;;;34.50;23.25;;;;;-144.24;100.00;114865.94;5097196;27;45315;-69
2024/01/17 04:58:14;;;;;;;;;29.50;24.50;;;;;-144.24;100.00;114865.94;5097954;27;65337;-67
2024/01/17 05:00:44;;;;;;;;;30.50;25.75;;;;;-144.24;100.00;114865.94;5099790;27;73519;-68
2024/01/17 05:03:09;;;;;;;;;32.00;22.75;;;;;-144.24;100.00;114865.94;5100209;27;45477;-68
2024/01/17 05:05:34;;;;;;;;;22.50;20.00;;;;;-144.24;100.00;114865.94;5099810;27;67911;-68
2024/01/17 05:07:59;;;;;;;;;26.00;20.50;;;;;-144.24;100.00;114865.94;5100235;27;45451;-70
2024/01/17 05:10:25;;;;;;;;;30.25;28.00;;;;;-144.24;100.00;114865.94;5098963;27;70401;-68
2024/01/17 05:12:50;;;;;;;;;30.25;20.50;;;;;-144.24;100.00;114865.94;5098816;27;65230;-68
2024/01/17 05:15:15;;;;;;;;;29.00;20.75;;;;;-144.24;100.00;114865.94;5098764;27;45283;-67
2024/01/17 05:17:41;;;;;;;;;30.00;24.25;;;;;-144.24;100.00;114865.94;5099704;27;63102;-67
2024/01/17 05:20:07;;;;;;;;;36.75;30.00;;;;;-144.24;100.00;114865.94;5098143;27;63372;-67
2024/01/17 05:22:32;;;;;;;;;31.50;27.75;;;;;-144.24;100.00;114865.94;5100382;27;45296;-70
2024/01/17 05:24:57;;;;;;;;;33.75;26.00;;;;;-144.24;100.00;114865.94;5098852;27;53103;-68
2024/01/17 05:27:23;;;;;;;;;27.75;20.00;;;;;-144.24;100.00;114865.94;5095610;27;67148;-67
2024/01/17 05:29:48;;;;;;;;;30.25;25.50;;;;;-144.24;100.00;114865.94;5090893;27;74293;-69
2024/01/17 05:32:14;;;;;;;;;26.00;23.75;;;;;-144.24;100.00;114865.94;5099466;27;45310;-67
2024/01/17 05:34:42;;;;;;;;;31.50;21.75;;;;;-144.24;100.00;114865.94;5100125;27;45350;-68
2024/01/17 05:37:10;;;;;;;;;26.75;24.50;;;;;-144.24;100.00;114865.94;5100156;27;45276;-68
2024/01/17 05:39:35;;;;;;;;;31.00;25.75;;;;;-144.24;100.00;114865.94;5099834;27;45709;-69
2024/01/17 05:42:01;;;;;;;;;28.25;20.00;;;;;-144.24;100.00;114865.94;5098572;27;45425;-68
2024/01/17 05:44:26;;;;;;;;;30.25;26.25;;;;;-144.24;100.00;114865.94;5093974;27;66946;-67
2024/01/17 05:46:51;;;;;;;;;33.00;27.50;;;;;-144.24;100.00;114865.94;5091001;27;50616;-68
2024/01/17 05:49:17;;;;;;;;;32.25;24.50;;;;;-144.24;100.00;114865.94;5096544;27;46041;-69
2024/01/17 05:51:42;;;;;;;;;39.25;29.75;;;;;-144.24;100.00;114865.94;5094210;27;66942;-68
2024/01/17 05:54:07;;;;;;;;;28.00;22.00;;;;;-144.24;100.00;114865.94;5080281;27;60920;-67
2024/01/17 05:56:34;;;;;;;;;31.25;28.75;;;;;-144.24;100.00;114865.94;5094842;27;45277;-67
2024/01/17 05:58:59;;;;;;;;;33.50;29.00;;;;;-144.24;100.00;114865.94;5099345;27;46483;-67
2024/01/17 06:01:25;;;;;;;;;39.00;26.75;;;;;-144.24;100.00;114865.94;5098633;27;71389;-67
2024/01/17 06:03:50;;;;;;;;;34.25;27.75;;;;;-144.24;100.00;114865.94;5097586;27;48261;-67
2024/01/17 06:06:17;;;;;;;;;33.75;28.25;;;;;-144.24;100.00;114865.94;5097255;27;47190;-67
2024/01/17 06:08:42;;;;;;;;;28.50;22.75;;;;;-144.24;100.00;114865.94;5087844;27;47033;-67
2024/01/17 06:11:08;;;;;;;;;29.75;23.00;;;;;-144.24;100.00;114865.94;5081351;27;66570;-69
2024/01/17 06:13:33;;;;;;;;;37.50;27.75;;;;;-144.24;100.00;114865.94;5078198;27;45612;-69
2024/01/17 06:15:58;;;;;;;;;33.00;26.75;;;;;-144.24;100.00;114865.94;5092094;27;53963;-68
2024/01/17 06:18:24;;;;;;;;;27.00;21.50;;;;;-144.24;100.00;114865.94;5093101;27;71142;-69
2024/01/17 06:20:49;;;;;;;;;27.00;23.25;;;;;-144.24;100.00;114865.94;5095997;27;70666;-69
2024/01/17 06:23:14;;;;;;;;;29.00;25.50;;;;;-144.24;100.00;114865.94;5097502;27;68329;-68
2024/01/17 06:25:39;;;;;;;;;27.75;23.50;;;;;-144.24;100.00;114865.94;5092732;27;45344;-68
2024/01/17 06:28:05;;;;;;;;;32.50;24.50;;;;;-144.24;100.00;114865.94;5096422;27;72392;-68
2024/01/17 06:30:30;;;;;;;;;26.00;26.00;;;;;-144.24;100.00;114865.94;5094557;27;45379;-68
2024/01/17 06:32:55;;;;;;;;;32.50;26.75;;;;;-144.24;100.00;114865.94;5068988;27;64953;-71
2024/01/17 06:35:21;;;;;;;;;25.75;19.75;;;;;-144.24;100.00;114865.94;5071364;27;45347;-68
2024/01/17 06:37:46;;;;;;;;;32.75;27.50;;;;;-144.24;100.00;114865.94;5096389;27;51176;-68
2024/01/17 06:40:12;;;;;;;;;28.25;24.25;;;;;-144.24;100.00;114865.94;5094119;27;45545;-69
2024/01/17 06:42:38;;;;;;;;;28.00;24.25;;;;;-144.24;100.00;114865.94;5086720;27;66832;-68
2024/01/17 06:45:03;;;;;;;;;21.50;21.50;;;;;-144.24;100.00;114865.94;5087478;27;45457;-70
2024/01/17 06:47:29;;;;;;;;;31.75;25.25;;;;;-144.24;100.00;114865.94;5087472;27;47454;-71
2024/01/17 06:49:54;;;;;;;;;28.00;22.50;;;;;-144.24;100.00;114865.94;5087877;27;71496;-68
2024/01/17 06:52:19;;;;;;;;;28.25;24.75;;;;;-144.24;100.00;114865.94;5093351;27;66985;-68
2024/01/17 06:54:46;;;;;;;;;29.75;23.25;;;;;-144.24;100.00;114865.94;5082531;27;45275;-69
2024/01/17 06:57:11;;;;;;;;;23.50;22.00;;;;;-144.24;100.00;114865.94;5081854;27;46565;-71
2024/01/17 06:59:36;;;;;;;;;32.00;25.50;;;;;-144.24;100.00;114865.94;5080785;27;59892;-70
2024/01/17 07:02:02;;;;;;;;;24.00;20.25;;;;;-144.24;100.00;114865.94;5083655;27;45633;-70
2024/01/17 07:04:27;;;;;;;;;30.00;22.75;;;;;-144.24;100.00;114865.94;5082717;27;45438;-71
2024/01/17 07:06:53;;;;;;;;;25.50;22.00;;;;;-144.24;100.00;114865.94;5081752;27;45750;-71
2024/01/17 07:09:18;;;;;;;;;21.25;15.50;;;;;-144.24;100.00;114865.94;5079288;27;45187;-74
2024/01/17 07:11:43;;;;;;;;;19.50;18.50;;;;;-144.24;100.00;114865.94;5062862;27;58930;-71
2024/01/17 07:14:09;;;;;;;;;28.75;22.50;;;;;-144.24;100.00;114865.94;5090191;27;57481;-70
2024/01/17 07:16:34;;;;;;;;;31.50;25.00;;;;;-144.24;100.00;114865.94;5083998;27;66431;-73
2024/01/17 07:19:00;;;;;;;;;16.00;15.00;;;;;-144.24;100.00;114865.94;5089196;27;60944;-72
2024/01/17 07:21:25;;;;;;;;;24.25;21.50;;;;;-144.24;100.00;114865.94;5081790;27;45408;-69
2024/01/17 07:23:51;;;;;;;;;20.25;18.75;;;;;-144.24;100.00;114865.94;5085508;27;45509;-69
2024/01/17 07:26:17;;;;;;;;;22.00;18.25;;;;;-144.24;100.00;114865.94;5070427;27;47300;-68
2024/01/17 07:28:42;;;;;;;;;31.25;22.00;;;;;-144.24;100.00;114865.94;5095293;27;71542;-67
2024/01/17 07:31:07;;;;;;;;;16.25;16.25;;;;;-144.24;100.00;114865.94;5095673;27;45409;-69
2024/01/17 07:33:33;;;;;;;;;19.00;16.50;;;;;-144.24;100.00;114865.94;5096024;27;45496;-66
2024/01/17 07:35:58;;;;;;;;;20.00;18.50;;;;;-144.24;100.00;114865.94;5086654;27;47450;-68
2024/01/17 07:38:25;;;;;;;;;18.75;13.00;;;;;-144.24;100.00;114865.94;5090610;27;45555;-67
2024/01/17 07:40:50;;;;;;;;;17.75;16.00;;;;;-144.24;100.00;114865.94;5096667;27;45504;-70
2024/01/17 07:43:17;;;;;;;;;23.00;16.00;;;;;-144.24;100.00;114865.94;5090271;27;45240;-67
2024/01/17 07:45:42;;;;;;;;;16.00;15.25;;;;;-144.24;100.00;114865.94;5092168;27;45585;-67
2024/01/17 07:48:07;;;;;;;;;16.75;13.75;;;;;-144.24;100.00;114865.94;5093845;27;45496;-68
2024/01/17 07:50:33;;;;;;;;;23.75;18.00;;;;;-144.24;100.00;114865.94;5091648;27;46265;-69
2024/01/17 07:52:58;;;;;;;;;19.50;15.50;;;;;-144.24;100.00;114865.94;5091901;27;60673;-68
2024/01/17 07:55:23;;;;;;;;;22.00;15.25;;;;;-144.24;100.00;114865.94;5086082;27;46058;-69
2024/01/17 07:57:49;;;;;;;;;21.50;15.25;;;;;-144.24;100.00;114865.94;5081790;27;45501;-68
2024/01/17 08:00:18;;;;;;;;;17.25;16.75;;;;;-144.24;100.00;114865.94;5084329;27;45548;-68
2024/01/17 08:02:43;;;;;;;;;17.25;13.50;;;;;-144.24;100.00;114865.94;5089051;27;45595;-68
2024/01/17 08:05:11;;;;;;;;;16.50;14.75;;;;;-144.24;100.00;114865.94;5084978;27;45658;-72
2024/01/17 08:07:36;;;;;;;;;17.75;13.00;;;;;-144.24;100.00;114865.94;5062445;27;46358;-70
2024/01/17 08:10:02;;;;;;;;;16.50;13.50;;;;;-144.24;100.00;114865.94;5068504;27;64950;-69
2024/01/17 08:12:27;;;;;;;;;19.50;15.75;;;;;-144.24;100.00;114865.94;5068181;27;45456;-71
2024/01/17 08:14:52;;;;;;;;;16.00;15.25;;;;;-144.24;100.00;114865.94;5071935;28;45543;-69
2024/01/17 08:17:18;;;;;;;;;14.25;12.25;;;;;-144.24;100.00;114865.94;5069221;27;69834;-72
2024/01/17 08:19:43;;;;;;;;;13.00;11.50;;;;;-144.24;100.00;114865.94;5073283;28;45947;-72
2024/01/17 08:22:09;;;;;;;;;15.00;14.25;;;;;-144.24;100.00;114865.94;5070963;27;61848;-71
2024/01/17 08:24:35;;;;;;;;;12.75;12.00;;;;;-144.24;100.00;114865.94;5072600;27;46542;-72
2024/01/17 08:27:00;;;;;;;;;24.50;15.75;;;;;-144.24;100.00;114865.94;5073880;28;45460;-71
2024/01/17 08:29:26;;;;;;;;;21.00;17.50;;;;;-144.24;100.00;114865.94;5071829;27;55364;-69
2024/01/17 08:31:52;;;;;;;;;15.50;12.75;;;;;-144.24;100.00;114865.94;5068128;27;47054;-68
2024/01/17 08:34:20;;;;;;;;;12.75;9.25;;;;;-144.24;100.00;114865.94;5066810;28;67467;-68
2024/01/17 08:36:45;;;;;;;;;17.00;14.00;;;;;-144.24;100.00;114865.94;5062524;28;45388;-68
2024/01/17 08:39:11;;;;;;;;;15.75;13.25;;;;;-144.24;100.00;114865.94;5070073;28;45446;-68
2024/01/17 08:41:37;;;;;;;;;15.00;15.00;;;;;-144.24;100.00;114865.94;5070985;28;45473;-73
2024/01/17 08:44:02;;;;;;;;;19.00;14.00;;;;;-144.24;100.00;114865.94;5070380;28;46532;-71
2024/01/17 08:46:31;;;;;;;;;16.00;12.00;;;;;-144.24;100.00;114865.94;5068188;28;45425;-68
2024/01/17 08:48:56;;;;;;;;;17.00;13.25;;;;;-144.24;100.00;114865.94;5065825;28;45480;-70
2024/01/17 08:51:24;;;;;;;;;16.50;14.75;;;;;-144.24;100.00;114865.94;5071005;28;60524;-68
2024/01/17 08:53:50;;;;;;;;;20.50;12.75;;;;;-144.24;100.00;114865.94;5067970;28;45936;-70
2024/01/17 08:56:15;;;;;;;;;13.00;9.25;;;;;-144.24;100.00;114865.94;5066398;27;45325;-70
2024/01/17 08:58:42;;;;;;;;;18.00;14.25;;;;;-144.24;100.00;114865.94;5071103;27;45476;-67
2024/01/17 09:01:10;;;;;;;;;13.50;11.75;;;;;-144.24;100.00;114865.94;5069793;27;45498;-71
2024/01/17 09:03:36;;;;;;;;;10.25;10.25;;;;;-144.24;100.00;114865.94;5064017;28;47220;-71
2024/01/17 09:06:02;;;;;;;;;11.75;10.75;;;;;-144.24;100.00;114865.94;5069706;27;45422;-70
2024/01/17 09:08:27;;;;;;;;;12.00;9.50;;;;;-144.24;100.00;114865.94;5081249;27;45461;-70
2024/01/17 09:10:53;;;;;;;;;11.25;6.00;;;;;-144.24;100.00;114865.94;5090225;27;61625;-69
2024/01/17 09:13:18;;;;;;;;;13.00;9.00;;;;;-144.24;100.00;114865.94;5086271;27;72449;-71
2024/01/17 09:15:43;;;;;;;;;10.00;10.00;;;;;-144.24;100.00;114865.94;5083107;27;68611;-68
2024/01/17 09:18:09;;;;;;;;;9.00;9.00;;;;;-144.24;100.00;114865.94;5085759;27;45653;-72
2024/01/17 09:20:34;;;;;;;;;15.75;9.50;;;;;-144.24;100.00;114865.94;5078376;27;65458;-68
2024/01/17 09:22:59;;;;;;;;;15.75;12.00;;;;;-144.24;100.00;114865.94;5083120;27;71749;-68
2024/01/17 09:25:25;;;;;;;;;11.25;9.75;;;;;-144.24;100.00;114865.94;5088170;27;72739;-70
2024/01/17 09:27:50;;;;;;;;;13.50;10.25;;;;;-144.24;100.00;114865.94;5087663;27;45473;-69
2024/01/17 09:30:15;;;;;;;;;11.50;8.75;;;;;-144.24;100.00;114865.94;5084253;27;60284;-68
2024/01/17 09:32:41;;;;;;;;;11.00;8.75;;;;;-144.24;100.00;114865.94;5083917;27;55021;-69
2024/01/17 09:35:08;;;;;;;;;10.00;8.00;;;;;-144.24;100.00;114865.94;5086432;27;45519;-68
2024/01/17 09:37:36;;;;;;;;;10.25;9.00;;;;;-144.24;100.00;114865.94;5088256;27;45937;-68
2024/01/17 09:40:02;;;;;;;;;14.00;12.00;;;;;-144.24;100.00;114865.94;5092655;27;45539;-69
2024/01/17 09:42:27;;;;;;;;;15.25;11.75;;;;;-144.24;100.00;114865.94;5070877;27;47511;-69
2024/01/17 09:44:53;;;;;;;;;14.75;13.00;;;;;-144.24;100.00;114865.94;5066776;27;45801;-68
2024/01/17 09:47:18;;;;;;;;;16.00;13.00;;;;;-144.24;100.00;114865.94;5082318;27;65037;-68
2024/01/17 09:49:44;;;;;;;;;21.00;16.25;;;;;-144.24;100.00;114865.94;5088468;27;45323;-69
2024/01/17 09:52:11;;;;;;;;;22.00;17.00;;;;;-144.24;100.00;114865.94;5065455;27;46604;-72
2024/01/17 09:54:40;;;;;;;;;15.00;9.50;;;;;-144.24;100.00;114865.94;5090590;27;45546;-71
2024/01/17 09:57:09;;;;;;;;;11.50;10.00;;;;;-144.24;100.00;114865.94;5074529;27;45552;-68
2024/01/17 09:59:45;;;;;;;;;18.50;14.75;;;;;-144.24;100.00;114865.94;5090710;27;45429;-69
2024/01/17 10:02:12;;;;;;;;;21.00;16.00;;;;;-144.24;100.00;114865.94;5094256;27;45574;-67
2024/01/17 10:04:40;;;;;;;;;13.00;12.00;;;;;-144.24;100.00;114865.94;5088083;27;45522;-68
2024/01/17 10:07:05;;;;;;;;;24.25;19.50;;;;;-144.24;100.00;114865.94;5174788;22;45842;-71
2024/01/17 10:09:31;;;;;;;;;14.50;13.50;;;;;-144.24;100.00;114865.94;5059638;27;58469;-72
2024/01/17 10:11:56;;;;;;;;;19.00;13.75;;;;;-144.24;100.00;114865.94;5071625;27;46553;-70
2024/01/17 10:14:23;;;;;;;;;13.50;12.25;;;;;-144.24;100.00;114865.94;5067029;27;74076;-69
2024/01/17 10:16:48;;;;;;;;;16.50;12.75;;;;;-144.24;100.00;114865.94;5068125;28;45533;-71
2024/01/17 10:19:15;;;;;;;;;14.75;12.75;;;;;-144.24;100.00;114865.94;5072732;28;46259;-70
2024/01/17 10:21:41;;;;;;;;;11.50;11.25;;;;;-144.24;100.00;114865.94;5074720;28;47022;-72
2024/01/17 10:24:06;;;;;;;;;16.50;12.50;;;;;-144.24;100.00;114865.94;5073083;27;45323;-70
2024/01/17 10:26:32;;;;;;;;;15.50;13.50;;;;;-144.24;100.00;114865.94;5071627;28;45570;-69
2024/01/17 10:28:58;;;;;;;;;16.50;12.75;;;;;-144.24;100.00;114865.94;5068132;27;45628;-69
2024/01/17 10:31:24;;;;;;;;;13.00;11.75;;;;;-144.24;100.00;114865.94;5068855;28;45435;-69
2024/01/17 10:33:51;;;;;;;;;12.50;11.00;;;;;-144.24;100.00;114865.94;5072987;28;45934;-70
2024/01/17 10:36:16;;;;;;;;;17.25;14.25;;;;;-144.24;100.00;114865.94;5057113;28;45537;-70
2024/01/17 10:38:41;;;;;;;;;14.00;13.00;;;;;-144.24;100.00;114865.94;5051715;28;65687;-69
2024/01/17 10:41:08;;;;;;;;;13.00;12.25;;;;;-144.24;100.00;114865.94;5053049;28;48717;-68